Time;durP1;ratioP1;P1;durP2;ratioP2;P2;SDS_P1;SDS_P2;PMS_P1;PMS_P2;Temp;Humidity;BMP_temperature;BMP_pressure;BME280_temperature;BME280_humidity;BME280_pressure;Samples;Min_cycle;Max_cycle;Signal;HPM_P1;HPM_P2
2021/04/05 04:01:30;;;;;;;8.80;6.10;;;6.10;99.90;;;;;;5533943;23;20540;-64
2021/04/05 04:04:03;;;;;;;7.80;6.13;;;6.10;99.90;;;;;;4994270;28;20450;-63
2021/04/05 04:06:36;;;;;;;11.13;6.03;;;6.10;99.90;;;;;;5002645;28;20438;-65
2021/04/05 04:09:04;;;;;;;9.00;6.10;;;6.00;99.90;;;;;;5003118;28;20441;-64
2021/04/05 04:11:33;;;;;;;7.00;5.33;;;6.00;99.90;;;;;;4998318;28;20956;-63
2021/04/05 04:14:03;;;;;;;10.27;6.33;;;5.90;99.90;;;;;;4996649;28;20472;-63
2021/04/05 04:16:31;;;;;;;8.43;6.40;;;5.70;99.90;;;;;;4994728;28;20457;-63
2021/04/05 04:19:01;;;;;;;13.13;5.70;;;5.80;99.90;;;;;;4995282;28;20811;-63
2021/04/05 04:21:28;;;;;;;8.97;6.10;;;5.80;99.90;;;;;;4994307;28;20529;-63
2021/04/05 04:23:56;;;;;;;6.87;5.37;;;5.80;99.90;;;;;;4994593;28;20457;-63
2021/04/05 04:26:23;;;;;;;8.97;6.10;;;5.80;99.90;;;;;;4994496;28;20457;-63
2021/04/05 04:28:50;;;;;;;7.87;6.47;;;5.80;99.90;;;;;;4995692;28;20928;-63
2021/04/05 04:31:20;;;;;;;8.27;6.33;;;5.70;99.90;;;;;;4998575;28;20478;-62
2021/04/05 04:33:48;;;;;;;8.73;5.50;;;5.70;99.90;;;;;;4998483;28;20441;-63
2021/04/05 04:36:20;;;;;;;8.43;6.07;;;5.80;99.90;;;;;;4998330;28;20458;-63
2021/04/05 04:38:47;;;;;;;12.83;6.60;;;5.80;99.90;;;;;;4998501;28;20468;-63
2021/04/05 04:41:20;;;;;;;8.07;6.40;;;5.80;99.90;;;;;;4998407;28;20470;-64
2021/04/05 04:43:46;;;;;;;6.70;6.00;;;5.80;99.90;;;;;;4998309;28;20439;-64
2021/04/05 04:46:12;;;;;;;11.00;6.77;;;5.80;99.90;;;;;;4997998;28;20453;-63
2021/04/05 04:48:39;;;;;;;9.20;5.93;;;5.80;99.90;;;;;;4998342;28;20508;-62
2021/04/05 04:51:09;;;;;;;8.17;5.80;;;5.80;99.90;;;;;;4998378;28;20480;-63
2021/04/05 04:53:35;;;;;;;9.10;6.10;;;5.80;99.90;;;;;;4997942;28;20453;-63
2021/04/05 04:56:02;;;;;;;7.30;6.17;;;5.90;99.90;;;;;;4997281;28;20465;-63
2021/04/05 04:58:28;;;;;;;10.67;6.03;;;5.90;99.90;;;;;;4998130;28;20473;-63
2021/04/05 05:00:54;;;;;;;11.57;6.90;;;5.90;99.90;;;;;;4996703;28;20481;-63
2021/04/05 05:03:22;;;;;;;10.40;5.80;;;5.90;99.90;;;;;;4997087;28;20857;-63
2021/04/05 05:05:51;;;;;;;7.70;6.90;;;5.90;99.90;;;;;;4997165;28;20461;-63
2021/04/05 05:08:18;;;;;;;11.30;6.60;;;5.80;99.90;;;;;;4997235;28;20480;-63
2021/04/05 05:10:47;;;;;;;8.13;6.57;;;5.80;99.90;;;;;;4997585;28;20485;-63
2021/04/05 05:13:14;;;;;;;12.97;7.50;;;5.90;99.90;;;;;;4997806;28;20457;-63
2021/04/05 05:15:42;;;;;;;7.67;6.27;;;5.90;99.90;;;;;;4997667;28;20465;-62
2021/04/05 05:18:08;;;;;;;7.00;6.40;;;5.90;99.90;;;;;;4998122;28;20509;-63
2021/04/05 05:20:34;;;;;;;8.97;6.40;;;5.90;99.90;;;;;;4998071;28;20477;-65
2021/04/05 05:23:02;;;;;;;11.23;6.10;;;5.80;99.90;;;;;;4997784;28;20454;-65
2021/04/05 05:25:33;;;;;;;11.60;6.50;;;5.90;99.90;;;;;;4997955;28;20453;-63
2021/04/05 05:28:03;;;;;;;11.03;6.10;;;6.00;99.90;;;;;;4996898;28;20955;-63
2021/04/05 05:30:30;;;;;;;7.63;6.73;;;6.10;99.90;;;;;;4997274;28;20453;-63
2021/04/05 05:32:59;;;;;;;9.13;7.10;;;6.20;99.90;;;;;;4997272;28;20465;-63
2021/04/05 05:35:26;;;;;;;16.83;7.33;;;6.30;99.90;;;;;;4997551;28;20540;-63
2021/04/05 05:37:53;;;;;;;10.90;7.30;;;6.30;99.90;;;;;;4997486;28;20469;-63
2021/04/05 05:40:22;;;;;;;7.80;6.03;;;6.40;99.90;;;;;;4995954;28;20461;-63
2021/04/05 05:43:00;;;;;;;11.93;6.57;;;6.50;99.90;;;;;;4996582;28;20442;-63
2021/04/05 05:45:32;;;;;;;8.80;6.73;;;6.60;99.90;;;;;;4996640;28;20460;-65
2021/04/05 05:48:09;;;;;;;9.17;6.10;;;6.50;99.90;;;;;;4998142;28;20434;-64
2021/04/05 05:50:47;;;;;;;10.57;6.73;;;6.60;99.90;;;;;;5001109;28;20484;-65
2021/04/05 05:53:22;;;;;;;12.23;6.47;;;6.60;99.90;;;;;;5008555;28;20828;-64
2021/04/05 05:56:16;;;;;;;9.57;5.87;;;6.60;99.90;;;;;;5003908;28;20445;-65
2021/04/05 05:58:50;;;;;;;9.47;5.80;;;6.70;99.90;;;;;;4996929;28;20465;-65
2021/04/05 06:01:26;;;;;;;8.50;6.30;;;6.80;99.90;;;;;;4995997;28;20485;-64
2021/04/05 06:03:59;;;;;;;11.60;6.23;;;6.80;99.90;;;;;;4996500;28;20438;-63
2021/04/05 06:06:35;;;;;;;6.53;5.93;;;7.00;99.90;;;;;;4996293;28;20492;-65
2021/04/05 06:09:08;;;;;;;9.20;6.47;;;7.00;99.90;;;;;;4996724;28;20470;-64
2021/04/05 06:11:52;;;;;;;11.43;5.50;;;7.10;99.90;;;;;;4997494;28;20478;-63
2021/04/05 06:14:32;;;;;;;7.40;5.30;;;7.30;99.90;;;;;;4997146;28;20445;-64
2021/04/05 06:17:12;;;;;;;7.73;6.50;;;7.30;99.90;;;;;;5000330;28;20442;-64
2021/04/05 06:19:48;;;;;;;9.50;6.23;;;7.40;99.90;;;;;;5004207;28;20473;-64
2021/04/05 06:22:26;;;;;;;6.03;5.47;;;7.40;99.90;;;;;;5002654;28;21037;-64
2021/04/05 06:25:01;;;;;;;7.07;6.17;;;7.30;99.90;;;;;;5001225;28;20888;-64
2021/04/05 06:27:36;;;;;;;7.03;5.70;;;7.10;99.90;;;;;;5001235;28;20920;-65
2021/04/05 06:30:08;;;;;;;5.67;5.07;;;7.10;99.90;;;;;;4999101;28;20448;-62
2021/04/05 06:32:47;;;;;;;7.60;6.13;;;7.30;99.90;;;;;;4997297;28;21054;-65
2021/04/05 06:35:46;;;;;;;9.80;5.37;;;7.40;99.90;;;;;;4997063;28;20532;-64
2021/04/05 06:38:20;;;;;;;7.60;5.30;;;7.50;99.90;;;;;;4995827;28;20466;-64
2021/04/05 06:40:48;;;;;;;7.87;5.90;;;7.60;99.90;;;;;;4995586;28;20532;-64
2021/04/05 06:43:56;;;;;;;8.30;5.40;;;7.70;99.90;;;;;;4995818;28;20461;-64
2021/04/05 06:46:38;;;;;;;8.73;6.10;;;7.80;99.90;;;;;;4935380;29;20452;-63
2021/04/05 06:49:25;;;;;;;6.17;5.57;;;8.00;99.90;;;;;;4935679;29;20444;-65
2021/04/05 06:52:08;;;;;;;8.40;6.27;;;8.00;99.90;;;;;;4981713;28;20473;-62
2021/04/05 06:54:58;;;;;;;10.13;6.20;;;8.20;99.90;;;;;;4997215;28;20847;-64
2021/04/05 06:57:36;;;;;;;9.47;5.30;;;8.20;99.90;;;;;;4998102;28;20439;-64
2021/04/05 07:00:07;;;;;;;7.37;5.63;;;8.30;99.90;;;;;;4996746;28;20461;-65
2021/04/05 07:03:11;;;;;;;11.33;5.90;;;8.50;99.90;;;;;;4995775;28;20544;-65
2021/04/05 07:05:55;;;;;;;10.00;6.37;;;8.60;99.90;;;;;;4995285;28;20437;-64
2021/04/05 07:08:27;;;;;;;8.50;6.00;;;8.80;99.90;;;;;;4995297;28;20434;-65
2021/04/05 07:11:05;;;;;;;8.63;6.33;;;9.00;99.90;;;;;;4995112;28;20813;-64
2021/04/05 07:13:40;;;;;;;8.63;5.63;;;9.20;99.90;;;;;;4994802;28;20450;-65
2021/04/05 07:16:15;;;;;;;8.77;6.30;;;9.40;99.90;;;;;;4995302;28;20437;-65
2021/04/05 07:18:55;;;;;;;12.70;6.43;;;9.70;99.90;;;;;;4995144;28;20461;-65
2021/04/05 07:21:36;;;;;;;9.13;6.67;;;9.80;99.90;;;;;;4995264;28;20627;-65
2021/04/05 07:24:14;;;;;;;8.87;6.23;;;10.10;99.90;;;;;;4995026;28;20442;-64
2021/04/05 07:26:49;;;;;;;8.80;6.27;;;10.20;99.90;;;;;;4995228;28;20453;-65
2021/04/05 07:29:19;;;;;;;8.17;6.07;;;10.50;99.90;;;;;;4995473;28;20475;-63
2021/04/05 07:31:54;;;;;;;8.20;5.60;;;10.50;99.90;;;;;;4995353;28;21054;-62
2021/04/05 07:34:32;;;;;;;10.10;6.40;;;10.70;98.20;;;;;;4995064;28;20476;-63
2021/04/05 07:37:13;;;;;;;6.70;4.90;;;10.80;97.10;;;;;;4994962;28;20496;-63
2021/04/05 07:39:49;;;;;;;7.10;5.30;;;11.20;96.60;;;;;;4995071;28;20462;-65
2021/04/05 07:42:22;;;;;;;11.63;6.00;;;11.70;95.30;;;;;;4994904;28;20477;-64
2021/04/05 07:44:59;;;;;;;6.53;5.40;;;12.10;92.40;;;;;;4994918;28;20442;-63
2021/04/05 07:47:34;;;;;;;7.80;5.40;;;12.80;96.30;;;;;;4994717;28;20456;-64
2021/04/05 07:50:07;;;;;;;8.80;5.67;;;13.60;89.50;;;;;;4994833;28;20437;-63
2021/04/05 07:52:41;;;;;;;8.63;6.43;;;14.10;84.30;;;;;;4994667;28;20482;-64
2021/04/05 07:55:10;;;;;;;9.23;5.90;;;14.70;83.10;;;;;;4994305;28;20448;-65
2021/04/05 07:57:46;;;;;;;7.93;5.50;;;15.10;76.20;;;;;;4994698;28;20461;-65
2021/04/05 08:00:17;;;;;;;10.93;6.63;;;15.20;74.60;;;;;;4994562;28;20437;-64
2021/04/05 08:02:55;;;;;;;9.60;6.33;;;15.30;75.30;;;;;;4993596;28;20434;-64
2021/04/05 08:05:32;;;;;;;9.63;5.70;;;15.30;76.00;;;;;;4993869;28;20642;-64
2021/04/05 08:08:15;;;;;;;10.70;6.87;;;15.70;77.90;;;;;;4993817;28;20445;-64
2021/04/05 08:10:52;;;;;;;10.80;6.07;;;16.00;72.60;;;;;;4993580;28;20528;-66
2021/04/05 08:13:27;;;;;;;12.00;6.10;;;16.30;73.80;;;;;;4993291;28;20832;-66
2021/04/05 08:16:01;;;;;;;7.70;6.27;;;16.80;71.70;;;;;;4993465;28;20488;-63
2021/04/05 08:18:36;;;;;;;8.17;5.97;;;17.20;73.20;;;;;;4994310;28;20466;-63
2021/04/05 08:21:09;;;;;;;13.03;7.27;;;17.60;67.70;;;;;;4993478;28;20488;-64
2021/04/05 08:23:48;;;;;;;11.03;7.23;;;17.80;66.80;;;;;;4994403;28;20784;-62
2021/04/05 08:26:25;;;;;;;9.80;6.87;;;17.50;66.80;;;;;;4994456;28;20494;-64
2021/04/05 08:29:03;;;;;;;7.23;5.80;;;17.80;68.10;;;;;;5008649;28;20434;-64
2021/04/05 08:31:47;;;;;;;8.87;6.13;;;17.90;66.40;;;;;;4995670;28;20469;-64
2021/04/05 08:34:30;;;;;;;11.93;6.50;;;17.90;66.10;;;;;;4993289;28;20442;-63
2021/04/05 08:37:06;;;;;;;14.20;6.27;;;17.90;66.60;;;;;;4992816;28;20445;-63
2021/04/05 08:39:42;;;;;;;9.97;5.83;;;17.70;64.90;;;;;;4992469;28;20461;-65
2021/04/05 08:42:14;;;;;;;13.40;6.70;;;17.30;72.90;;;;;;4993286;28;20481;-64
2021/04/05 08:44:50;;;;;;;8.07;5.90;;;17.10;63.90;;;;;;4992937;28;20451;-63
2021/04/05 08:47:22;;;;;;;11.17;5.80;;;16.80;64.30;;;;;;4992873;28;20441;-64
2021/04/05 08:49:48;;;;;;;11.20;6.90;;;16.60;64.60;;;;;;4992916;28;20460;-63
2021/04/05 08:52:21;;;;;;;12.00;7.30;;;16.50;67.10;;;;;;4992555;28;20497;-66
2021/04/05 08:54:49;;;;;;;14.83;7.00;;;16.50;67.70;;;;;;4993720;28;20884;-64
2021/04/05 08:57:22;;;;;;;12.67;7.40;;;16.10;66.70;;;;;;5005208;28;20453;-63
2021/04/05 08:59:55;;;;;;;11.60;7.80;;;15.90;68.20;;;;;;5005437;28;20458;-64
2021/04/05 09:02:24;;;;;;;12.33;6.60;;;15.60;68.20;;;;;;4987211;28;571122;-63
2021/04/05 09:04:54;;;;;;;10.80;7.10;;;15.30;71.30;;;;;;5007598;28;20195;-65
2021/04/05 09:07:34;;;;;;;12.93;7.57;;;15.00;69.80;;;;;;5007914;28;20464;-63
2021/04/05 09:10:05;;;;;;;12.60;7.27;;;14.80;71.50;;;;;;5005442;28;20485;-63
2021/04/05 09:12:34;;;;;;;14.10;6.20;;;14.60;70.90;;;;;;5004778;28;20477;-64
2021/04/05 09:15:55;;;;;;;8.93;6.70;;;14.40;69.10;;;;;;5005889;28;20453;-64
2021/04/05 09:18:49;;;;;;;12.93;7.73;;;14.10;71.50;;;;;;5012073;28;20481;-64
2021/04/05 09:21:29;;;;;;;8.47;6.43;;;14.00;74.80;;;;;;5011630;28;20473;-64
2021/04/05 09:24:18;;;;;;;12.37;6.37;;;14.10;74.10;;;;;;4998802;28;20444;-65
2021/04/05 09:27:07;;;;;;;11.27;6.83;;;14.10;71.80;;;;;;4998682;28;20437;-64
2021/04/05 09:29:40;;;;;;;11.23;5.23;;;13.90;72.50;;;;;;4998982;28;20836;-63
2021/04/05 09:32:43;;;;;;;11.97;5.90;;;14.00;72.20;;;;;;4998359;28;20621;-63
2021/04/05 09:35:27;;;;;;;28.47;7.20;;;14.10;70.80;;;;;;4998124;28;20441;-64
2021/04/05 09:38:09;;;;;;;13.00;6.37;;;14.10;69.10;;;;;;4997992;28;20441;-64
2021/04/05 09:41:02;;;;;;;13.47;5.53;;;14.20;67.90;;;;;;4998220;28;20504;-65
2021/04/05 09:44:00;;;;;;;12.77;5.67;;;13.90;65.10;;;;;;4998194;28;20446;-65
2021/04/05 09:46:50;;;;;;;11.20;5.47;;;14.10;66.10;;;;;;4997762;28;20450;-64
2021/04/05 09:49:25;;;;;;;12.67;5.67;;;14.20;67.90;;;;;;4997458;28;20441;-65
2021/04/05 09:52:15;;;;;;;10.93;4.77;;;14.10;62.20;;;;;;4997195;28;20477;-65
2021/04/05 09:54:48;;;;;;;9.93;5.33;;;14.20;65.40;;;;;;4996758;28;20441;-64
2021/04/05 09:57:19;;;;;;;13.00;5.37;;;14.30;63.10;;;;;;4997059;28;20872;-63
2021/04/05 09:59:49;;;;;;;10.63;5.70;;;14.30;64.30;;;;;;4997906;28;20512;-63
2021/04/05 10:02:25;;;;;;;12.10;5.73;;;14.50;63.00;;;;;;4997340;28;20489;-63
2021/04/05 10:04:52;;;;;;;14.50;5.03;;;14.60;63.90;;;;;;4997517;28;20442;-63
2021/04/05 10:07:19;;;;;;;9.20;5.10;;;14.70;60.50;;;;;;4997009;28;20461;-64
2021/04/05 10:09:49;;;;;;;11.10;5.80;;;14.80;63.00;;;;;;4997039;28;20454;-64
2021/04/05 10:12:17;;;;;;;8.33;5.17;;;15.00;60.00;;;;;;4997139;28;20477;-63
2021/04/05 10:14:44;;;;;;;8.10;5.10;;;15.10;64.00;;;;;;4996980;28;20498;-64
2021/04/05 10:17:11;;;;;;;7.27;5.00;;;15.20;59.40;;;;;;4996695;28;20458;-64
2021/04/05 10:19:41;;;;;;;6.43;4.70;;;15.10;59.20;;;;;;4996273;28;20996;-64
2021/04/05 10:22:13;;;;;;;7.37;5.40;;;15.30;68.00;;;;;;4996862;28;20489;-64
2021/04/05 10:24:42;;;;;;;6.23;5.33;;;15.30;60.00;;;;;;4996622;28;20442;-65
2021/04/05 10:27:10;;;;;;;8.13;5.00;;;15.40;58.80;;;;;;4996141;28;20460;-64
2021/04/05 10:29:39;;;;;;;7.23;4.93;;;15.50;59.40;;;;;;4996945;28;20465;-65
2021/04/05 10:32:07;;;;;;;12.80;5.20;;;15.70;58.40;;;;;;4999013;28;20488;-64
2021/04/05 10:34:36;;;;;;;7.63;4.60;;;15.80;56.50;;;;;;4997559;28;20995;-62
2021/04/05 10:37:08;;;;;;;12.50;6.10;;;15.80;56.20;;;;;;4996469;28;20945;-63
2021/04/05 10:39:35;;;;;;;8.53;5.60;;;15.80;56.70;;;;;;4996967;28;20623;-64
2021/04/05 10:42:07;;;;;;;8.10;5.63;;;15.90;57.20;;;;;;4996522;28;20485;-64
2021/04/05 10:44:40;;;;;;;8.73;4.93;;;15.70;56.40;;;;;;4996175;28;20442;-65
2021/04/05 10:47:13;;;;;;;9.37;5.53;;;15.60;58.80;;;;;;4996688;28;20438;-65
2021/04/05 10:49:41;;;;;;;8.00;5.40;;;15.50;57.80;;;;;;4996434;28;20441;-63
2021/04/05 10:52:10;;;;;;;6.00;4.63;;;15.80;58.90;;;;;;4997368;28;20474;-63
2021/04/05 10:54:39;;;;;;;9.10;5.70;;;15.70;57.20;;;;;;4996763;28;20541;-64
2021/04/05 10:57:10;;;;;;;8.00;6.13;;;15.70;58.30;;;;;;4996579;28;20786;-63
2021/04/05 10:59:46;;;;;;;7.43;5.50;;;15.50;58.70;;;;;;5013043;28;20461;-63
2021/04/05 11:02:18;;;;;;;11.40;6.30;;;15.40;59.50;;;;;;5012528;28;20539;-65
2021/04/05 11:04:51;;;;;;;9.27;6.50;;;15.50;62.30;;;;;;5000019;28;20434;-64
2021/04/05 11:07:20;;;;;;;17.10;8.07;;;15.20;61.30;;;;;;4996378;28;20489;-63
2021/04/05 11:09:47;;;;;;;16.10;8.07;;;15.10;63.70;;;;;;4995811;28;20971;-64
2021/04/05 11:12:15;;;;;;;14.90;7.30;;;15.10;65.50;;;;;;4995620;28;20484;-65
2021/04/05 11:14:43;;;;;;;17.97;7.47;;;15.00;66.00;;;;;;4996133;28;20453;-65
2021/04/05 11:17:10;;;;;;;20.07;8.73;;;14.70;67.60;;;;;;5006072;28;20937;-64
2021/04/05 11:19:40;;;;;;;18.40;8.70;;;14.50;68.10;;;;;;4996709;28;20532;-65
2021/04/05 11:22:13;;;;;;;11.03;8.00;;;14.30;69.70;;;;;;4995972;28;20544;-65
2021/04/05 11:24:41;;;;;;;14.90;7.90;;;13.90;69.00;;;;;;4995765;28;20449;-65
2021/04/05 11:27:10;;;;;;;18.03;9.10;;;13.70;69.80;;;;;;4996635;28;20461;-62
2021/04/05 11:29:41;;;;;;;18.53;9.40;;;13.70;71.50;;;;;;4998181;28;20453;-63
2021/04/05 11:32:14;;;;;;;18.30;8.30;;;13.40;70.80;;;;;;4995992;28;20478;-64
2021/04/05 11:34:43;;;;;;;17.47;9.40;;;13.30;70.40;;;;;;4995354;28;20905;-64
2021/04/05 11:37:13;;;;;;;17.20;7.90;;;13.20;70.30;;;;;;4995741;28;20454;-64
2021/04/05 11:39:44;;;;;;;13.67;8.60;;;13.30;70.60;;;;;;4994633;28;20477;-65
2021/04/05 11:42:12;;;;;;;18.97;9.20;;;13.30;71.60;;;;;;4995566;28;20481;-64
2021/04/05 11:44:42;;;;;;;10.60;8.70;;;13.30;71.80;;;;;;4995856;28;20462;-64
2021/04/05 11:47:10;;;;;;;11.67;8.70;;;13.30;70.80;;;;;;4995939;28;20442;-64
2021/04/05 11:49:37;;;;;;;13.17;8.07;;;13.40;71.30;;;;;;4995651;28;20454;-64
2021/04/05 11:52:08;;;;;;;15.80;9.00;;;13.30;71.80;;;;;;4995586;28;20484;-65
2021/04/05 11:54:40;;;;;;;14.97;9.13;;;13.30;71.80;;;;;;4995713;28;20446;-64
2021/04/05 11:57:10;;;;;;;23.60;11.27;;;13.40;72.60;;;;;;4995988;28;20803;-64
2021/04/05 11:59:45;;;;;;;16.73;10.87;;;13.30;76.40;;;;;;4998917;28;20469;-63
2021/04/05 12:02:20;;;;;;;22.50;11.53;;;13.10;78.10;;;;;;4995859;28;20491;-65
2021/04/05 12:04:51;;;;;;;15.10;11.47;;;13.10;78.90;;;;;;4994824;28;20442;-64
2021/04/05 12:07:20;;;;;;;17.60;11.20;;;13.00;80.80;;;;;;4994889;28;20442;-63
2021/04/05 12:09:50;;;;;;;26.03;12.10;;;12.90;80.20;;;;;;4994412;28;20434;-64
2021/04/05 12:12:21;;;;;;;17.17;11.00;;;12.80;82.10;;;;;;4994503;28;20478;-65
2021/04/05 12:14:53;;;;;;;20.57;11.30;;;12.80;83.30;;;;;;4994692;28;20449;-63
2021/04/05 12:17:22;;;;;;;17.37;12.50;;;12.90;83.60;;;;;;4994492;28;20492;-62
2021/04/05 12:19:50;;;;;;;17.43;10.40;;;12.90;85.20;;;;;;4993956;28;20477;-64
2021/04/05 12:22:23;;;;;;;20.00;11.60;;;12.90;85.10;;;;;;4994835;28;20834;-63
2021/04/05 12:24:51;;;;;;;15.27;12.33;;;12.80;84.30;;;;;;4994373;28;20909;-63
2021/04/05 12:27:18;;;;;;;19.70;12.80;;;12.60;84.90;;;;;;4994310;28;20446;-63
2021/04/05 12:29:46;;;;;;;20.73;13.80;;;12.50;85.60;;;;;;4994267;28;20508;-65
2021/04/05 12:32:16;;;;;;;17.00;12.13;;;12.40;85.80;;;;;;4994216;28;20477;-63
2021/04/05 12:34:45;;;;;;;22.73;12.20;;;12.20;85.90;;;;;;4994594;28;20458;-63
2021/04/05 12:37:13;;;;;;;24.07;12.20;;;12.00;86.60;;;;;;4993998;28;20860;-63
2021/04/05 12:39:40;;;;;;;21.20;12.90;;;11.80;88.10;;;;;;4993850;28;20524;-62
2021/04/05 12:42:08;;;;;;;16.30;11.70;;;11.80;88.70;;;;;;4993789;28;20531;-62
2021/04/05 12:44:36;;;;;;;16.70;12.27;;;11.70;89.70;;;;;;4994095;28;20458;-63
2021/04/05 12:47:07;;;;;;;15.10;11.50;;;11.30;89.30;;;;;;4993990;28;20508;-62
2021/04/05 12:49:37;;;;;;;21.57;12.57;;;11.30;90.90;;;;;;4996066;28;20825;-62
2021/04/05 12:52:06;;;;;;;20.53;13.00;;;11.30;91.00;;;;;;4997654;28;20846;-63
2021/04/05 12:54:36;;;;;;;16.00;12.97;;;11.30;91.90;;;;;;4997951;28;20449;-64
2021/04/05 12:57:05;;;;;;;18.77;12.20;;;11.40;91.50;;;;;;4997425;28;20438;-64
2021/04/05 12:59:35;;;;;;;19.80;12.53;;;11.40;92.70;;;;;;4997636;28;20484;-64
2021/04/05 13:02:12;;;;;;;27.60;13.63;;;11.50;92.80;;;;;;4997269;28;20517;-64
2021/04/05 13:04:44;;;;;;;18.83;12.70;;;11.70;92.30;;;;;;4997574;28;20860;-64
2021/04/05 13:07:16;;;;;;;21.90;13.03;;;11.80;91.70;;;;;;4997500;28;20438;-64
2021/04/05 13:09:48;;;;;;;20.27;12.43;;;11.80;91.20;;;;;;4997314;28;20438;-64
2021/04/05 13:12:20;;;;;;;25.10;12.80;;;11.80;91.40;;;;;;4998329;28;20485;-64
2021/04/05 13:14:50;;;;;;;23.40;12.60;;;11.80;90.40;;;;;;4996992;28;20445;-64
2021/04/05 13:17:24;;;;;;;15.70;10.83;;;11.90;90.30;;;;;;4997880;28;20449;-64
2021/04/05 13:19:55;;;;;;;24.80;11.57;;;12.00;90.40;;;;;;4997106;28;20561;-64
2021/04/05 13:22:25;;;;;;;23.17;11.70;;;12.00;90.40;;;;;;4997168;28;20472;-64
2021/04/05 13:24:58;;;;;;;17.80;11.27;;;11.90;90.50;;;;;;4996989;28;20909;-64
2021/04/05 13:27:27;;;;;;;18.90;10.27;;;11.80;89.20;;;;;;4996875;28;20465;-64
2021/04/05 13:29:55;;;;;;;20.20;10.10;;;11.60;89.50;;;;;;4998085;28;20460;-64
2021/04/05 13:32:25;;;;;;;18.73;9.33;;;11.60;90.50;;;;;;4997094;28;20835;-64
2021/04/05 13:34:59;;;;;;;23.73;11.53;;;11.50;90.40;;;;;;4997002;28;20442;-63
2021/04/05 13:37:27;;;;;;;14.60;9.30;;;11.40;90.70;;;;;;4996762;28;20445;-64
2021/04/05 13:39:53;;;;;;;12.27;10.33;;;11.40;90.60;;;;;;4996918;28;20473;-64
2021/04/05 13:42:23;;;;;;;14.50;8.53;;;11.30;90.70;;;;;;4996948;28;20552;-63
2021/04/05 13:44:54;;;;;;;13.10;9.63;;;11.20;90.90;;;;;;4999673;28;20877;-63
2021/04/05 13:47:25;;;;;;;13.60;8.27;;;11.00;90.90;;;;;;5010529;28;20435;-63
2021/04/05 13:49:55;;;;;;;12.97;8.03;;;11.00;91.40;;;;;;4998380;28;20884;-62
2021/04/05 13:52:22;;;;;;;13.50;7.73;;;11.00;96.70;;;;;;4996547;28;20473;-64
2021/04/05 13:54:53;;;;;;;17.83;7.97;;;11.10;94.40;;;;;;4996844;28;20461;-63
2021/04/05 13:57:21;;;;;;;11.07;7.53;;;11.10;93.20;;;;;;4996660;28;20438;-62
2021/04/05 14:00:05;;;;;;;12.47;7.90;;;11.20;94.30;;;;;;4996590;28;20540;-65
2021/04/05 14:02:34;;;;;;;18.67;8.20;;;11.00;94.10;;;;;;4995533;28;20489;-64
2021/04/05 14:05:03;;;;;;;12.03;8.30;;;10.80;96.80;;;;;;4996505;28;20458;-64
2021/04/05 14:07:35;;;;;;;13.63;9.63;;;10.70;99.30;;;;;;4996471;28;20445;-62
2021/04/05 14:10:05;;;;;;;13.40;8.23;;;10.50;99.90;;;;;;4996178;28;20437;-64
2021/04/05 14:12:35;;;;;;;14.40;9.73;;;10.50;99.90;;;;;;4996140;28;20833;-64
2021/04/05 14:15:01;;;;;;;12.20;10.10;;;10.40;99.90;;;;;;4996449;28;20817;-65
2021/04/05 14:17:31;;;;;;;16.07;10.70;;;10.20;99.90;;;;;;4996450;28;20465;-65
2021/04/05 14:20:04;;;;;;;15.80;11.17;;;9.80;99.90;;;;;;4996588;28;20484;-64
2021/04/05 14:22:34;;;;;;;13.73;10.70;;;9.70;99.90;;;;;;4996273;28;20844;-64
2021/04/05 14:25:05;;;;;;;15.70;11.10;;;9.40;99.90;;;;;;4996257;28;20438;-65
2021/04/05 14:27:39;;;;;;;15.97;12.60;;;9.30;99.90;;;;;;4996169;28;20449;-64
2021/04/05 14:30:10;;;;;;;17.70;13.40;;;9.10;99.90;;;;;;4996494;28;20434;-65
2021/04/05 14:32:42;;;;;;;21.90;14.27;;;8.70;99.90;;;;;;4996041;28;20477;-66
2021/04/05 14:35:11;;;;;;;17.40;13.10;;;8.50;99.90;;;;;;4995824;28;20913;-65
2021/04/05 14:37:42;;;;;;;16.80;13.60;;;8.40;99.90;;;;;;4996070;28;20445;-64
2021/04/05 14:40:13;;;;;;;20.77;13.53;;;8.30;99.90;;;;;;4995745;28;20979;-65
2021/04/05 14:42:42;;;;;;;15.80;14.10;;;8.10;99.90;;;;;;4995794;28;20988;-65
2021/04/05 14:45:11;;;;;;;17.97;13.40;;;8.10;99.90;;;;;;4995740;28;20458;-65
2021/04/05 14:47:41;;;;;;;19.77;14.03;;;7.80;99.90;;;;;;4995787;28;20861;-63
2021/04/05 14:50:10;;;;;;;17.57;13.67;;;7.60;99.90;;;;;;4995656;28;20458;-65
2021/04/05 14:52:39;;;;;;;17.07;14.03;;;7.60;99.90;;;;;;4995779;28;20882;-65
2021/04/05 14:55:08;;;;;;;20.00;14.70;;;7.50;99.90;;;;;;4995756;28;20457;-65
2021/04/05 14:57:39;;;;;;;24.73;14.80;;;7.50;99.90;;;;;;4995576;28;20461;-66
2021/04/05 15:00:12;;;;;;;15.10;11.90;;;7.60;99.90;;;;;;4995409;28;20465;-65
2021/04/05 15:02:39;;;;;;;16.93;12.30;;;7.60;99.90;;;;;;4995107;28;20481;-66
2021/04/05 15:05:08;;;;;;;4.90;3.10;;;7.50;99.90;;;;;;4995297;28;20822;-65
2021/04/05 15:07:38;;;;;;;2.47;2.27;;;6.80;99.90;;;;;;4995335;28;20454;-65
2021/04/05 15:10:09;;;;;;;2.27;2.17;;;5.50;99.90;;;;;;4995366;28;20441;-65
2021/04/05 15:12:39;;;;;;;1.97;1.87;;;4.90;99.90;;;;;;4994441;28;20653;-65
2021/04/05 15:15:13;;;;;;;2.60;2.50;;;4.60;99.90;;;;;;4994900;28;20446;-65
2021/04/05 15:17:44;;;;;;;1.80;1.70;;;4.30;99.90;;;;;;4995113;28;20441;-64
2021/04/05 15:20:14;;;;;;;2.37;1.80;;;4.30;99.90;;;;;;4994904;28;20458;-64
2021/04/05 15:22:42;;;;;;;1.80;1.70;;;4.50;99.90;;;;;;4994954;28;20485;-65
2021/04/05 15:25:11;;;;;;;2.23;2.13;;;4.50;99.90;;;;;;4994897;28;20461;-64
2021/04/05 15:27:38;;;;;;;2.00;1.80;;;4.10;99.90;;;;;;4994818;28;20461;-64
2021/04/05 15:30:07;;;;;;;2.70;1.67;;;3.80;99.90;;;;;;4994753;28;20450;-63
2021/04/05 15:32:35;;;;;;;1.63;1.53;;;3.50;99.90;;;;;;4994847;28;20536;-63
2021/04/05 15:35:09;;;;;;;1.70;1.60;;;3.40;99.90;;;;;;4994844;28;20454;-63
2021/04/05 15:37:36;;;;;;;1.63;1.53;;;3.20;99.90;;;;;;4994474;28;20952;-63
2021/04/05 15:40:05;;;;;;;1.73;1.63;;;3.10;99.90;;;;;;4994720;28;20531;-63
2021/04/05 15:42:41;;;;;;;1.67;1.43;;;3.00;99.90;;;;;;4994555;28;20478;-63
2021/04/05 15:45:15;;;;;;;3.03;1.87;;;3.00;99.90;;;;;;4994532;28;20437;-63
2021/04/05 15:47:46;;;;;;;2.00;1.77;;;2.90;99.90;;;;;;4994533;28;20441;-63
2021/04/05 15:50:16;;;;;;;2.50;2.30;;;3.00;99.90;;;;;;4994323;28;20905;-63
2021/04/05 15:52:46;;;;;;;1.43;1.43;;;3.10;99.90;;;;;;4994570;28;20434;-63
2021/04/05 15:55:21;;;;;;;2.27;2.10;;;3.10;99.90;;;;;;4995354;28;20446;-63
2021/04/05 15:57:53;;;;;;;1.97;1.87;;;3.10;99.90;;;;;;4994688;28;20445;-62
2021/04/05 16:00:26;;;;;;;1.77;1.63;;;3.00;99.90;;;;;;4994207;28;20473;-63
2021/04/05 16:02:57;;;;;;;1.53;1.43;;;2.90;99.90;;;;;;4994324;28;20973;-63
2021/04/05 16:05:25;;;;;;;1.53;1.43;;;2.80;99.90;;;;;;4993950;28;20928;-62
2021/04/05 16:08:14;;;;;;;1.97;1.43;;;2.70;99.90;;;;;;4994265;28;20457;-63
2021/04/05 16:10:50;;;;;;;1.27;1.23;;;2.50;99.90;;;;;;4994253;28;20465;-63
2021/04/05 16:13:35;;;;;;;1.27;1.07;;;2.40;99.90;;;;;;4994098;28;20437;-63
2021/04/05 16:16:05;;;;;;;1.23;1.17;;;2.40;99.90;;;;;;4994243;28;20456;-63
2021/04/05 16:18:35;;;;;;;2.07;1.30;;;2.30;99.90;;;;;;4994160;28;20453;-63
2021/04/05 16:21:05;;;;;;;2.60;1.60;;;2.20;99.90;;;;;;4994355;28;20477;-63
2021/04/05 16:23:33;;;;;;;5.20;1.73;;;2.10;99.90;;;;;;4994901;28;20453;-63
2021/04/05 16:26:02;;;;;;;1.40;1.13;;;2.00;99.90;;;;;;5007541;28;20438;-65
2021/04/05 16:28:34;;;;;;;3.70;1.27;;;2.10;99.90;;;;;;5009970;28;20434;-64
2021/04/05 16:31:04;;;;;;;4.20;1.53;;;2.20;99.90;;;;;;4999202;28;20520;-63
2021/04/05 16:33:35;;;;;;;6.53;2.40;;;2.20;99.90;;;;;;4998766;28;20796;-63
2021/04/05 16:36:06;;;;;;;2.07;1.30;;;2.10;99.90;;;;;;4998969;28;20433;-63
2021/04/05 16:38:39;;;;;;;2.30;2.10;;;2.20;99.90;;;;;;4998558;28;20496;-62
2021/04/05 16:41:09;;;;;;;1.90;1.70;;;2.20;99.90;;;;;;4998107;28;20977;-65
2021/04/05 16:43:42;;;;;;;3.03;1.50;;;2.30;99.90;;;;;;4998787;28;20442;-64
2021/04/05 16:46:11;;;;;;;3.40;2.00;;;2.30;99.90;;;;;;5000230;28;20438;-63
2021/04/05 16:48:39;;;;;;;1.90;1.80;;;2.40;99.90;;;;;;4998565;28;20457;-62
2021/04/05 16:51:10;;;;;;;6.10;2.00;;;2.40;99.90;;;;;;4998205;28;20480;-65
2021/04/05 16:53:37;;;;;;;3.93;2.07;;;2.40;99.90;;;;;;4998907;28;20450;-64
2021/04/05 16:56:09;;;;;;;3.30;2.40;;;2.50;99.90;;;;;;4998205;28;20449;-62
2021/04/05 16:58:42;;;;;;;4.83;2.20;;;2.40;99.90;;;;;;4998287;28;20774;-64
2021/04/05 17:01:08;;;;;;;4.23;2.80;;;2.40;99.90;;;;;;4997776;28;20531;-64
2021/04/05 17:03:44;;;;;;;4.13;3.53;;;2.40;99.90;;;;;;4998019;28;20454;-64
2021/04/05 17:06:16;;;;;;;2.60;2.40;;;2.30;99.90;;;;;;4998168;28;20865;-62
2021/04/05 17:08:46;;;;;;;3.30;2.77;;;2.30;99.90;;;;;;4998109;28;20433;-63
2021/04/05 17:11:16;;;;;;;3.80;2.40;;;2.30;99.90;;;;;;4997824;28;20992;-65
2021/04/05 17:13:50;;;;;;;4.00;2.17;;;2.20;99.90;;;;;;4997982;28;20430;-63